Longview, WA

12:14 PM PDT on August 29, 2014 (GMT -0700)
Chehalis-Centralia | Change Station
CLOSE
Current Station
Airport
Location: Chehalis,
Elevation: 177 ft
Nearby Weather Stations

Elev 177 ft 46.68 °N, 122.98 °W | Updated -19 second ago

Mostly Cloudy
Mostly Cloudy
73 °F
Feels Like 73 °F
N
5
Wind Variable Wind from Variable

Today
High -- | Low -- °F
--% Chance of Precip.
Yesterday
High -- | Low -- °F
Precip. -- in
6:29 AM 7:56 PM
Waxing Crescent, 16% visible
Pressure 30.00 in
Visibility 10.0 miles
Clouds Scattered Clouds 3600 ft
Mostly Cloudy 4700 ft
Dew Point 59 °F
Humidity 61%
Rainfall 0.00 in
Snow Depth Not available.
UV 4 out of 12
Pollen 3.60 out of 12
Air Quality Not available.
Flu Activity Not available.
METAR KCLS 291915Z AUTO VRB04KT 10SM SCT036 BKN047 23/15 A3000 RMK AO2

More Conditions Fewer Conditions

Pressure 30.00 in
Visibility 10.0 miles
Clouds Scattered Clouds 3600 ft
Mostly Cloudy 4700 ft
Dew Point 59 °F
Humidity 61%
Rainfall 0.00 in
Snow Depth Not available.
UV 4 out of 12
Pollen 3.60 out of 12
Air Quality Not available.
Flu Activity Not available.
METAR KCLS 291915Z AUTO VRB04KT 10SM SCT036 BKN047 23/15 A3000 RMK AO2

More Conditions Fewer Conditions

10-Day Weather Forecast

Almanac

Astronomy

Aug. 29, 2014 Rise Set
Actual Time 6:29 AM PDT 7:56 PM PDT
Civil Twilight 5:57 AM PDT 8:27 PM PDT
Nautical Twilight 5:19 AM PDT 9:05 PM PDT
Astronomical Twilight 4:39 AM PDT 9:45 PM PDT
Moon 10:39 AM PDT 9:40 PM PDT
Length of Visible Light 14h 29m
Length of Day
13h 27m
Tomorrow will be 3m 8s shorter.
Waxing Crescent, 16% of the Moon is Illuminated
Today
Waxing Crescent
Sep 2
First Quarter
Sep 8
Full
Sep 15
Last Quarter
Sep 24
New

Today's Extremes

State Highs State Lows

Community

WunderPhotos

Upload Photos

1,748,314 photos uploaded!

Nearby

Snow Depth

Station Depth Elevation
Swift Creek 0 in 3770 ft
June Lake 0 in 3340 ft
Lone Pine 0 in 3800 ft
Spencer Meadow 0 in 3400 ft
Surprise Lakes 0 in 4250 ft

Earthquake Activity

City Distance Mag. Time & Date
No recent earthquake activity has been reported nearby.
Minimum magnitude displayed is 2.5.

Coastal Water Temperatures

Place Temperature
Astoria, OR 70.0 °F
Westport, WA 57.0 °F

Nearby Weather Stations